< < Back
Terminal Aerodrome Forecast


Current Version              Previous Versions:   1  2  3  4  5  6  7  8  9  

Terminal Aerodrome Forecast

217
FTUS44 KBMX 261720
TAFTCL
TAF
KTCL 261720Z 2618/2718 24007KT P6SM SCT025 BKN150
     FM262100 23007KT P6SM VCTS BKN050CB
     FM262300 33010KT 4SM -SHRA VCTS OVC020CB
     FM270500 34010KT P6SM OVC010
     FM271400 34010KT P6SM SKC=



Latest METAR

362
SAUS70 KWBC 262156
MTRTCL
METAR KTCL 262153Z 27003KT 10SM BKN110 24/13 A2978 RMK AO2 LTG DSNT SE
AND S SLP081 T02390128


USA.gov is the U.S. government's official web portal to all federal, state and local government web resources and services.